Time;durP1;ratioP1;P1;durP2;ratioP2;P2;SDS_P1;SDS_P2;PMS_P1;PMS_P2;Temp;Humidity;BMP_temperature;BMP_pressure;BME280_temperature;BME280_humidity;BME280_pressure;Samples;Min_cycle;Max_cycle;Signal;HPM_P1;HPM_P2
2021/03/25 00:00:40;;;;;;;35.55;22.10;;;5.60;99.60;;;;;;5085621;28;20040;-67
2021/03/25 00:03:09;;;;;;;32.38;22.17;;;5.60;99.80;;;;;;5085458;28;20148;-67
2021/03/25 00:05:35;;;;;;;30.83;21.88;;;5.60;99.70;;;;;;5083067;28;20038;-67
2021/03/25 00:08:01;;;;;;;31.90;21.10;;;5.60;99.70;;;;;;5081625;28;20039;-67
2021/03/25 00:10:32;;;;;;;32.53;21.42;;;5.60;99.80;;;;;;5087159;28;20048;-67
2021/03/25 00:12:58;;;;;;;31.50;20.38;;;5.60;99.60;;;;;;5081465;28;20035;-67
2021/03/25 00:15:25;;;;;;;35.42;23.65;;;5.50;99.30;;;;;;5084036;28;20143;-67
2021/03/25 00:17:51;;;;;;;32.22;21.30;;;5.50;99.50;;;;;;5082546;28;20039;-67
2021/03/25 00:20:18;;;;;;;31.65;21.80;;;5.50;99.50;;;;;;5083026;28;20056;-67
2021/03/25 00:22:43;;;;;;;37.75;22.83;;;5.50;99.80;;;;;;5084594;28;20104;-67
2021/03/25 00:25:13;;;;;;;28.15;20.17;;;5.50;99.70;;;;;;5081524;28;20148;-67
2021/03/25 00:27:39;;;;;;;32.72;20.92;;;5.40;99.20;;;;;;5083958;28;20081;-67
2021/03/25 00:30:06;;;;;;;37.45;21.85;;;5.40;99.40;;;;;;5086160;28;20032;-67
2021/03/25 00:32:33;;;;;;;26.92;19.45;;;5.40;99.40;;;;;;5080462;28;20039;-67
2021/03/25 00:34:59;;;;;;;31.20;19.80;;;5.40;99.70;;;;;;5087093;28;20036;-67
2021/03/25 00:37:25;;;;;;;35.10;21.85;;;5.30;99.60;;;;;;5088941;28;20039;-67
2021/03/25 00:39:51;;;;;;;32.17;21.20;;;5.40;99.70;;;;;;5083440;28;20050;-67
2021/03/25 00:42:17;;;;;;;32.63;22.33;;;5.30;99.60;;;;;;5082744;28;20040;-67
2021/03/25 00:44:43;;;;;;;32.33;21.63;;;5.30;99.80;;;;;;5084674;28;20465;-67
2021/03/25 00:47:10;;;;;;;36.05;24.38;;;5.30;99.90;;;;;;5090131;28;20063;-67
2021/03/25 00:49:36;;;;;;;30.48;21.50;;;5.30;99.90;;;;;;5089942;28;20048;-67
2021/03/25 00:52:02;;;;;;;38.28;24.40;;;5.30;99.80;;;;;;5088325;28;20582;-67
2021/03/25 00:54:28;;;;;;;32.03;23.67;;;5.20;99.90;;;;;;5090181;28;20032;-67
2021/03/25 00:56:54;;;;;;;33.42;24.88;;;5.20;99.90;;;;;;5090993;28;20126;-67
2021/03/25 00:59:20;;;;;;;34.65;24.77;;;5.20;99.90;;;;;;5085802;28;20123;-67
2021/03/25 01:01:45;;;;;;;38.72;24.27;;;5.20;99.90;;;;;;5087733;28;20306;-67
2021/03/25 01:04:11;;;;;;;34.70;24.20;;;5.30;99.90;;;;;;5089581;28;20509;-67
2021/03/25 01:06:37;;;;;;;36.28;23.92;;;5.20;99.90;;;;;;5086423;28;20043;-67
2021/03/25 01:09:17;;;;;;;33.85;20.83;;;5.20;99.90;;;;;;5086720;28;20044;-67
2021/03/25 01:11:42;;;;;;;36.10;24.30;;;5.20;99.90;;;;;;5086219;28;20089;-67
2021/03/25 01:14:10;;;;;;;34.15;23.63;;;5.20;99.90;;;;;;5089377;28;20040;-67
2021/03/25 01:16:40;;;;;;;33.95;23.02;;;5.20;99.90;;;;;;5091674;28;20379;-67
2021/03/25 01:19:14;;;;;;;33.17;23.58;;;5.20;99.90;;;;;;5092052;28;20036;-67
2021/03/25 01:21:40;;;;;;;29.25;22.48;;;5.30;99.90;;;;;;5091434;28;20044;-67
2021/03/25 01:24:07;;;;;;;46.33;25.17;;;5.30;99.90;;;;;;5089067;28;20060;-67
2021/03/25 01:26:33;;;;;;;38.78;24.45;;;5.30;99.90;;;;;;5090225;28;20082;-67
2021/03/25 01:29:00;;;;;;;39.33;27.10;;;5.30;99.90;;;;;;5088137;28;20482;-67
2021/03/25 01:31:27;;;;;;;25.17;17.98;;;5.30;99.90;;;;;;5088575;28;20066;-67
2021/03/25 01:33:53;;;;;;;29.77;18.42;;;5.30;99.90;;;;;;5090121;28;20047;-67
2021/03/25 01:36:19;;;;;;;31.95;20.92;;;5.20;99.70;;;;;;5090500;28;20028;-67
2021/03/25 01:38:45;;;;;;;35.45;24.60;;;5.20;99.50;;;;;;5091768;28;20666;-67
2021/03/25 01:41:11;;;;;;;45.72;28.23;;;5.20;99.60;;;;;;5091089;28;20058;-67
2021/03/25 01:43:42;;;;;;;33.88;23.65;;;5.20;99.90;;;;;;5092418;28;20130;-67
2021/03/25 01:46:23;;;;;;;36.30;24.10;;;5.20;99.90;;;;;;5085953;28;20036;-67
2021/03/25 01:48:52;;;;;;;41.55;25.33;;;5.20;99.80;;;;;;5087945;28;20036;-66
2021/03/25 01:51:20;;;;;;;46.33;27.48;;;5.00;99.90;;;;;;5093516;28;20036;-67
2021/03/25 01:54:08;;;;;;;43.63;26.98;;;5.10;99.90;;;;;;5091430;28;20047;-67
2021/03/25 01:57:13;;;;;;;43.60;27.42;;;5.10;99.90;;;;;;5088578;28;21226;-67
2021/03/25 02:00:18;;;;;;;43.33;26.95;;;5.10;99.90;;;;;;5091492;28;20035;-67
2021/03/25 02:03:22;;;;;;;39.53;26.38;;;5.10;99.90;;;;;;5090236;28;20040;-67
2021/03/25 02:06:15;;;;;;;39.72;25.02;;;5.10;99.90;;;;;;5089028;28;20047;-67
2021/03/25 02:09:10;;;;;;;31.88;22.67;;;5.10;99.90;;;;;;5091106;28;20402;-66
2021/03/25 02:12:05;;;;;;;37.20;24.40;;;4.90;99.90;;;;;;5087719;28;20504;-67
2021/03/25 02:14:44;;;;;;;36.67;25.33;;;5.00;99.90;;;;;;5089162;28;20517;-67
2021/03/25 02:17:47;;;;;;;43.05;29.38;;;5.00;99.90;;;;;;5087638;28;20059;-67
2021/03/25 02:20:45;;;;;;;51.78;30.35;;;5.10;99.90;;;;;;5029775;28;20042;-67
2021/03/25 02:23:38;;;;;;;44.05;29.67;;;5.10;99.90;;;;;;5089028;28;20036;-67
2021/03/25 02:26:07;;;;;;;36.50;25.85;;;5.20;99.90;;;;;;5088517;28;20092;-67
2021/03/25 02:28:51;;;;;;;44.83;27.88;;;5.20;99.90;;;;;;5087450;28;20086;-67
2021/03/25 02:31:27;;;;;;;44.17;27.90;;;5.30;99.90;;;;;;5088719;28;20081;-67
2021/03/25 02:33:55;;;;;;;;;;;5.30;99.90;;;;;;5084121;28;20031;-67
2021/03/25 02:36:39;;;;;;;45.75;27.95;;;5.30;99.90;;;;;;5089239;28;20336;-67
2021/03/25 02:39:12;;;;;;;41.80;29.40;;;5.40;99.90;;;;;;5087776;28;20036;-66
2021/03/25 02:41:45;;;;;;;46.83;29.90;;;5.40;99.90;;;;;;5091109;28;20120;-66
2021/03/25 02:44:13;;;;;;;47.60;31.67;;;5.40;99.90;;;;;;5086663;28;20142;-66
2021/03/25 02:46:47;;;;;;;50.70;32.83;;;5.40;99.90;;;;;;5090670;28;20039;-67
2021/03/25 02:49:16;;;;;;;43.58;30.65;;;5.50;99.90;;;;;;5088089;28;20075;-67
2021/03/25 02:52:24;;;;;;;50.67;30.88;;;5.40;99.90;;;;;;5086157;28;20063;-67
2021/03/25 02:54:52;;;;;;;44.60;28.95;;;5.50;99.90;;;;;;5086381;28;20040;-67
2021/03/25 02:57:50;;;;;;;51.25;31.30;;;5.40;99.90;;;;;;5088125;28;20056;-67
2021/03/25 03:00:21;;;;;;;41.15;27.08;;;5.50;99.90;;;;;;5088470;28;20036;-67
2021/03/25 03:02:55;;;;;;;48.38;31.45;;;5.50;99.90;;;;;;5085148;28;20059;-67
2021/03/25 03:05:24;;;;;;;48.55;28.92;;;5.50;99.90;;;;;;5087621;28;20079;-67
2021/03/25 03:08:02;;;;;;;53.65;33.80;;;5.40;99.90;;;;;;5084427;28;20556;-67
2021/03/25 03:10:35;;;;;;;58.17;34.55;;;5.40;99.90;;;;;;5090243;28;20028;-67
2021/03/25 03:13:03;;;;;;;45.75;30.65;;;5.40;99.90;;;;;;5086822;28;20425;-67
2021/03/25 03:15:39;;;;;;;52.60;30.52;;;5.40;99.90;;;;;;5087478;28;20036;-67
2021/03/25 03:18:11;;;;;;;;;;;5.40;99.90;;;;;;5086327;28;20371;-66
2021/03/25 03:20:47;;;;;;;46.15;29.33;;;5.40;99.90;;;;;;5089202;28;20412;-66
2021/03/25 03:23:13;;;;;;;48.83;28.77;;;5.40;99.90;;;;;;5089254;28;20059;-67
2021/03/25 03:25:40;;;;;;;47.92;32.22;;;5.40;99.90;;;;;;5086974;28;20398;-67
2021/03/25 03:28:19;;;;;;;48.60;32.33;;;5.40;99.90;;;;;;5088264;28;20040;-67
2021/03/25 03:31:01;;;;;;;50.30;33.65;;;5.40;99.90;;;;;;5085055;28;20074;-66
2021/03/25 03:33:34;;;;;;;55.88;32.58;;;5.30;99.90;;;;;;5088653;28;20044;-67
2021/03/25 03:36:12;;;;;;;48.47;32.72;;;5.30;99.90;;;;;;5088268;28;20030;-66
2021/03/25 03:38:59;;;;;;;50.90;31.55;;;5.30;99.90;;;;;;5085786;28;20178;-67
2021/03/25 03:41:31;;;;;;;48.17;30.55;;;5.30;99.90;;;;;;5086437;28;20121;-67
2021/03/25 03:44:02;;;;;;;51.92;33.22;;;5.40;99.90;;;;;;5089709;28;20074;-66
2021/03/25 03:46:30;;;;;;;48.08;31.85;;;5.40;99.90;;;;;;5089008;28;20043;-67
2021/03/25 03:49:12;;;;;;;49.17;30.80;;;5.40;99.90;;;;;;5086008;28;20055;-66
2021/03/25 03:51:44;;;;;;;42.38;31.10;;;5.40;99.90;;;;;;5089512;28;20418;-66
2021/03/25 03:54:11;;;;;;;49.13;31.73;;;5.40;99.90;;;;;;5087897;28;20043;-67
2021/03/25 03:56:54;;;;;;;53.03;32.65;;;5.40;99.90;;;;;;5087262;28;20048;-67
2021/03/25 04:00:01;;;;;;;53.47;33.80;;;5.50;99.90;;;;;;5085970;28;20048;-67
2021/03/25 04:02:41;;;;;;;56.90;33.72;;;5.50;99.90;;;;;;5047254;28;20048;-67
2021/03/25 04:05:25;;;;;;;48.95;31.95;;;5.50;99.90;;;;;;5084926;28;20044;-66
2021/03/25 04:08:27;;;;;;;45.65;32.08;;;5.50;99.90;;;;;;5087486;28;20036;-67
2021/03/25 04:11:12;;;;;;;52.67;31.80;;;5.60;99.90;;;;;;5089681;28;20154;-67
2021/03/25 04:13:42;;;;;;;54.03;33.03;;;5.60;99.90;;;;;;5088320;28;20039;-67
2021/03/25 04:16:08;;;;;;;53.47;34.40;;;5.60;99.90;;;;;;5088877;28;20481;-66
2021/03/25 04:19:01;;;;;;;47.08;32.08;;;5.60;99.90;;;;;;5086979;28;20040;-67
2021/03/25 04:21:32;;;;;;;51.55;32.35;;;5.60;99.90;;;;;;5086734;28;20059;-67
2021/03/25 04:24:02;;;;;;;54.60;34.28;;;5.60;99.90;;;;;;5087107;28;20040;-66
2021/03/25 04:26:34;;;;;;;52.15;34.17;;;5.60;99.90;;;;;;5087998;28;20101;-67
2021/03/25 04:29:13;;;;;;;57.40;34.25;;;5.60;99.90;;;;;;5088905;28;20111;-67
2021/03/25 04:31:39;;;;;;;55.22;35.08;;;5.60;99.90;;;;;;5085399;28;20494;-66
2021/03/25 04:34:05;;;;;;;56.33;33.83;;;5.60;99.90;;;;;;5090419;28;20028;-66
2021/03/25 04:36:39;;;;;;;51.83;33.70;;;5.60;99.90;;;;;;5088392;28;20035;-67
2021/03/25 04:39:07;;;;;;;51.63;33.63;;;5.60;99.90;;;;;;5086622;28;20032;-67
2021/03/25 04:41:35;;;;;;;51.10;34.50;;;5.60;99.90;;;;;;5088408;28;20044;-66
2021/03/25 04:44:04;;;;;;;52.13;32.38;;;5.60;99.90;;;;;;5085794;28;20037;-67
2021/03/25 04:46:52;;;;;;;53.05;33.85;;;5.60;99.90;;;;;;5084931;28;20097;-66
2021/03/25 04:49:50;;;;;;;54.22;33.22;;;5.60;99.90;;;;;;5084871;28;20098;-66
2021/03/25 04:52:26;;;;;;;49.17;32.72;;;5.60;99.90;;;;;;5072098;28;20051;-67
2021/03/25 04:54:52;;;;;;;50.30;32.42;;;5.60;99.90;;;;;;5085998;28;20047;-67
2021/03/25 04:57:22;;;;;;;58.72;34.35;;;5.60;99.90;;;;;;5084308;28;20043;-66
2021/03/25 04:59:48;;;;;;;48.72;33.78;;;5.50;99.90;;;;;;5086133;28;20069;-66
2021/03/25 05:02:14;;;;;;;44.80;30.88;;;5.50;99.90;;;;;;5086962;28;20486;-66
2021/03/25 05:04:44;;;;;;;55.03;33.15;;;5.50;99.90;;;;;;5088209;28;20146;-66
2021/03/25 05:07:16;;;;;;;55.03;35.35;;;5.50;99.90;;;;;;5088971;28;20051;-67
2021/03/25 05:09:42;;;;;;;53.55;33.92;;;5.50;99.90;;;;;;5083770;28;20503;-66
2021/03/25 05:12:17;;;;;;;57.38;36.03;;;5.40;99.90;;;;;;5087221;28;20064;-66
2021/03/25 05:14:46;;;;;;;56.53;35.95;;;5.40;99.90;;;;;;5083918;28;20040;-66
2021/03/25 05:17:32;;;;;;;57.85;36.90;;;5.40;99.90;;;;;;5086623;28;20119;-66
2021/03/25 05:20:17;;;;;;;54.90;34.47;;;5.40;99.90;;;;;;5085632;28;20035;-66
2021/03/25 05:23:04;;;;;;;65.97;37.47;;;5.40;99.90;;;;;;5082877;28;20051;-66
2021/03/25 05:25:34;;;;;;;60.22;37.00;;;5.30;99.90;;;;;;5083242;28;20040;-66
2021/03/25 05:28:05;;;;;;;59.45;36.78;;;5.30;99.90;;;;;;5085305;28;20043;-66
2021/03/25 05:30:35;;;;;;;58.88;35.47;;;5.30;99.90;;;;;;5082634;28;20466;-66
2021/03/25 05:33:16;;;;;;;55.53;37.22;;;5.30;99.90;;;;;;5087044;28;20055;-66
2021/03/25 05:35:56;;;;;;;58.03;37.33;;;5.30;99.90;;;;;;5084353;28;20051;-66
2021/03/25 05:38:22;;;;;;;65.88;38.70;;;5.30;99.90;;;;;;5112342;27;20389;-66
2021/03/25 05:40:53;;;;;;;60.63;37.63;;;5.30;99.90;;;;;;5088545;28;20047;-66
2021/03/25 05:43:40;;;;;;;64.72;38.53;;;5.30;99.90;;;;;;5087442;28;20044;-66
2021/03/25 05:46:41;;;;;;;58.80;36.72;;;5.30;99.90;;;;;;5086314;28;20055;-66
2021/03/25 05:49:32;;;;;;;57.85;35.40;;;5.30;99.90;;;;;;5086527;28;20056;-66
2021/03/25 05:52:28;;;;;;;51.00;31.15;;;5.30;99.90;;;;;;5082433;28;20055;-66
2021/03/25 05:55:30;;;;;;;43.50;30.08;;;5.30;99.90;;;;;;5087651;28;20043;-66
2021/03/25 05:58:10;;;;;;;46.92;28.40;;;5.30;99.90;;;;;;5055055;28;20047;-66
2021/03/25 06:00:57;;;;;;;39.58;27.55;;;5.30;99.90;;;;;;5085195;28;20044;-66
2021/03/25 06:03:23;;;;;;;47.53;28.77;;;5.40;99.90;;;;;;5084712;28;20036;-66
2021/03/25 06:05:54;;;;;;;65.28;36.17;;;5.40;99.90;;;;;;5087630;28;20136;-66
2021/03/25 06:08:45;;;;;;;64.18;37.65;;;5.60;99.90;;;;;;5089518;28;20040;-66
2021/03/25 06:11:38;;;;;;;58.83;36.47;;;5.80;99.90;;;;;;5091419;28;20123;-67
2021/03/25 06:14:31;;;;;;;60.58;35.42;;;6.10;99.90;;;;;;5092124;28;20040;-66
2021/03/25 06:17:13;;;;;;;60.50;37.05;;;6.30;99.90;;;;;;5090275;28;20036;-67
2021/03/25 06:19:57;;;;;;;53.53;33.85;;;6.60;99.90;;;;;;5091821;28;20081;-67
2021/03/25 06:22:44;;;;;;;55.00;34.53;;;6.90;99.60;;;;;;5089060;28;20059;-67
2021/03/25 06:26:00;;;;;;;55.75;34.65;;;7.10;99.30;;;;;;5091564;28;21092;-67
2021/03/25 06:28:32;;;;;;;54.75;35.03;;;7.30;99.00;;;;;;5067275;28;20468;-67
2021/03/25 06:31:18;;;;;;;54.88;33.70;;;7.50;98.50;;;;;;5090825;28;20085;-67
2021/03/25 06:33:52;;;;;;;49.58;33.70;;;7.60;98.40;;;;;;5087881;28;20032;-67
2021/03/25 06:36:20;;;;;;;51.00;35.42;;;7.70;98.20;;;;;;5089067;28;20480;-67
2021/03/25 06:38:54;;;;;;;53.13;34.53;;;7.80;98.10;;;;;;5088475;28;20032;-67
2021/03/25 06:42:07;;;;;;;54.00;35.25;;;8.00;98.20;;;;;;5086286;28;20036;-67
2021/03/25 06:44:46;;;;;;;49.90;33.47;;;8.20;97.80;;;;;;5007408;28;20400;-67
2021/03/25 06:47:40;;;;;;;50.13;33.55;;;8.40;97.60;;;;;;5009678;28;20038;-67
2021/03/25 06:50:07;;;;;;;52.55;36.70;;;8.40;97.30;;;;;;5058268;28;20058;-67
2021/03/25 06:52:37;;;;;;;62.70;36.55;;;8.40;97.40;;;;;;5089510;28;20047;-67
2021/03/25 06:55:10;;;;;;;55.72;37.33;;;8.40;97.30;;;;;;5087814;28;20035;-67
2021/03/25 06:57:56;;;;;;;56.50;36.53;;;8.40;97.10;;;;;;5087671;28;20083;-67
2021/03/25 07:00:25;;;;;;;53.88;37.28;;;8.80;97.00;;;;;;5088208;28;20036;-67
2021/03/25 07:02:53;;;;;;;58.05;37.67;;;9.00;96.60;;;;;;5089780;28;20494;-67
2021/03/25 07:05:31;;;;;;;56.47;38.95;;;9.30;96.40;;;;;;5089007;28;20389;-67
2021/03/25 07:08:31;;;;;;;54.75;35.28;;;9.30;95.90;;;;;;5088423;28;20038;-67
2021/03/25 07:10:58;;;;;;;66.20;39.88;;;9.50;95.60;;;;;;5085154;28;20425;-67
2021/03/25 07:13:38;;;;;;;59.83;40.00;;;9.60;95.70;;;;;;5087772;28;20046;-67
2021/03/25 07:16:06;;;;;;;67.35;40.45;;;9.70;95.40;;;;;;5088407;28;20383;-68
2021/03/25 07:18:58;;;;;;;57.17;39.55;;;9.80;95.10;;;;;;5087602;28;20501;-67
2021/03/25 07:21:36;;;;;;;60.65;40.13;;;9.60;95.10;;;;;;5086934;28;20478;-68
2021/03/25 07:24:12;;;;;;;58.63;38.78;;;9.60;95.20;;;;;;5087081;28;20111;-68
2021/03/25 07:26:43;;;;;;;64.07;41.90;;;9.70;95.30;;;;;;5086292;28;20478;-67
2021/03/25 07:29:09;;;;;;;63.20;40.83;;;9.70;95.20;;;;;;5080636;28;20063;-67
2021/03/25 07:31:56;;;;;;;64.95;41.80;;;9.60;95.30;;;;;;5084791;28;20043;-67
2021/03/25 07:34:32;;;;;;;61.35;42.72;;;9.60;95.30;;;;;;5089524;28;20043;-67
2021/03/25 07:37:00;;;;;;;60.58;40.88;;;9.70;95.50;;;;;;5082633;28;20047;-67
2021/03/25 07:39:31;;;;;;;60.58;42.50;;;9.80;95.60;;;;;;5088214;28;20044;-67
2021/03/25 07:41:59;;;;;;;68.15;43.20;;;9.70;95.30;;;;;;5088033;28;20060;-67
2021/03/25 07:44:24;;;;;;;64.20;44.55;;;9.60;95.80;;;;;;5087099;28;20151;-67
2021/03/25 07:46:56;;;;;;;62.22;42.67;;;9.50;96.00;;;;;;5089207;28;20134;-67
2021/03/25 07:49:25;;;;;;;67.75;44.53;;;9.50;96.00;;;;;;5089581;28;20047;-67
2021/03/25 07:51:52;;;;;;;70.35;46.67;;;9.40;95.80;;;;;;5087384;28;20036;-67
2021/03/25 07:54:37;;;;;;;71.55;44.30;;;9.40;96.20;;;;;;5088104;28;20043;-67
2021/03/25 07:57:12;;;;;;;68.38;45.28;;;9.30;95.80;;;;;;5086860;28;20040;-67
2021/03/25 07:59:51;;;;;;;67.20;46.50;;;9.20;96.10;;;;;;5088022;28;20039;-67
2021/03/25 08:02:29;;;;;;;77.22;48.70;;;9.10;96.30;;;;;;5085983;28;20120;-66
2021/03/25 08:04:56;;;;;;;73.45;46.13;;;9.10;96.40;;;;;;5088699;28;20040;-66
2021/03/25 08:07:24;;;;;;;65.43;45.28;;;9.10;96.50;;;;;;5086165;28;20367;-67
2021/03/25 08:09:54;;;;;;;74.63;46.67;;;9.00;96.90;;;;;;5088675;28;20085;-66
2021/03/25 08:12:20;;;;;;;79.55;48.55;;;9.00;97.00;;;;;;5069229;28;20461;-67
2021/03/25 08:14:45;;;;;;;75.10;48.00;;;9.00;97.10;;;;;;5088655;28;20063;-67
2021/03/25 08:17:11;;;;;;;73.25;46.70;;;9.00;97.20;;;;;;5087440;28;20126;-66
2021/03/25 08:19:40;;;;;;;71.22;47.22;;;9.00;97.20;;;;;;5089077;28;20092;-66
2021/03/25 08:22:49;;;;;;;70.00;46.05;;;9.00;97.30;;;;;;5086847;28;20040;-67
2021/03/25 08:25:37;;;;;;;70.15;46.75;;;9.00;97.40;;;;;;5059955;28;20139;-67
2021/03/25 08:28:28;;;;;;;80.78;49.28;;;9.00;97.50;;;;;;5098657;28;20379;-67
2021/03/25 08:31:22;;;;;;;70.78;48.40;;;9.10;97.00;;;;;;5085725;28;20058;-67
2021/03/25 08:34:22;;;;;;;74.53;48.95;;;9.10;97.30;;;;;;5085483;28;20032;-67
2021/03/25 08:37:10;;;;;;;75.63;48.55;;;9.20;97.30;;;;;;5081239;28;20036;-67
2021/03/25 08:39:45;;;;;;;74.53;49.42;;;9.30;97.00;;;;;;5069306;28;20453;-66
2021/03/25 08:42:20;;;;;;;75.03;48.67;;;9.30;96.90;;;;;;5089170;28;20463;-66
2021/03/25 08:45:07;;;;;;;69.80;47.33;;;9.60;97.10;;;;;;5113468;28;20150;-66
2021/03/25 08:47:58;;;;;;;76.20;47.78;;;10.00;97.60;;;;;;5086938;28;20064;-67
2021/03/25 08:50:40;;;;;;;68.15;46.13;;;9.70;97.40;;;;;;5101686;28;20390;-67
2021/03/25 08:53:36;;;;;;;73.07;46.53;;;9.80;96.80;;;;;;5087964;28;20040;-67
2021/03/25 08:56:14;;;;;;;71.55;45.17;;;9.90;96.60;;;;;;5084820;28;20413;-67
2021/03/25 08:58:42;;;;;;;67.90;43.65;;;10.00;96.40;;;;;;5087592;28;20080;-67
2021/03/25 09:01:15;;;;;;;62.05;43.15;;;10.10;96.00;;;;;;5086013;28;20032;-67
2021/03/25 09:03:46;;;;;;;68.07;41.40;;;10.40;96.10;;;;;;5088682;28;20605;-67
2021/03/25 09:06:31;;;;;;;61.03;41.85;;;10.50;95.70;;;;;;5087847;28;20390;-67
2021/03/25 09:09:36;;;;;;;66.60;42.80;;;10.50;94.80;;;;;;5116012;27;20044;-67
2021/03/25 09:12:11;;;;;;;57.58;40.72;;;10.60;95.40;;;;;;5087461;28;20036;-67
2021/03/25 09:14:37;;;;;;;58.65;41.55;;;10.70;95.30;;;;;;5093296;28;20040;-66
2021/03/25 09:17:06;;;;;;;59.65;40.35;;;10.70;95.10;;;;;;5090414;28;20040;-66
2021/03/25 09:19:45;;;;;;;63.70;39.83;;;10.80;94.60;;;;;;5090855;28;20085;-67
2021/03/25 09:22:41;;;;;;;56.00;36.67;;;10.90;94.20;;;;;;5089349;28;20040;-67
2021/03/25 09:25:19;;;;;;;59.65;37.55;;;11.10;94.50;;;;;;5090094;28;20044;-67
2021/03/25 09:28:09;;;;;;;52.33;36.15;;;11.50;94.30;;;;;;5086971;28;20040;-67
2021/03/25 09:30:43;;;;;;;52.25;34.35;;;11.80;93.50;;;;;;5086444;28;20166;-67
2021/03/25 09:33:41;;;;;;;45.78;33.03;;;11.80;92.80;;;;;;5084172;28;20064;-68
2021/03/25 09:36:33;;;;;;;47.35;32.25;;;12.10;93.00;;;;;;5111313;27;20094;-67
2021/03/25 09:38:58;;;;;;;47.33;32.17;;;12.30;92.80;;;;;;5081468;28;20076;-67
2021/03/25 09:41:24;;;;;;;46.00;32.78;;;12.40;91.40;;;;;;5091337;28;20059;-67
2021/03/25 09:44:17;;;;;;;47.35;31.35;;;12.50;91.90;;;;;;5086846;28;20043;-67
2021/03/25 09:46:53;;;;;;;50.00;31.52;;;12.60;91.20;;;;;;5084913;28;20039;-67
2021/03/25 09:49:19;;;;;;;41.92;30.20;;;12.80;90.80;;;;;;5084041;28;20044;-67
2021/03/25 09:52:09;;;;;;;42.70;28.58;;;12.90;90.90;;;;;;5083441;28;20071;-67
2021/03/25 09:54:36;;;;;;;45.65;31.77;;;12.90;89.50;;;;;;5080756;28;20052;-67
2021/03/25 09:57:31;;;;;;;46.22;30.90;;;12.90;90.80;;;;;;5083800;28;20035;-67
2021/03/25 10:00:12;;;;;;;46.47;29.77;;;13.20;90.50;;;;;;5086634;28;20602;-67
2021/03/25 10:02:41;;;;;;;50.10;31.27;;;13.30;90.10;;;;;;5085257;28;20036;-68
2021/03/25 10:05:27;;;;;;;37.75;26.73;;;13.60;90.70;;;;;;5068359;28;20044;-67
2021/03/25 10:07:54;;;;;;;43.97;29.13;;;13.60;88.70;;;;;;5110969;27;20047;-67
2021/03/25 10:10:38;;;;;;;45.65;31.55;;;13.60;86.10;;;;;;5085537;28;20052;-68
2021/03/25 10:13:05;;;;;;;47.05;32.20;;;13.50;88.40;;;;;;5088942;28;20035;-67
2021/03/25 10:15:30;;;;;;;56.13;35.25;;;13.50;87.80;;;;;;5087564;28;20040;-67
2021/03/25 10:17:59;;;;;;;46.92;32.58;;;13.40;89.40;;;;;;5084472;28;20047;-67
2021/03/25 10:20:43;;;;;;;52.92;36.33;;;13.40;87.70;;;;;;5095022;28;20059;-68
2021/03/25 10:23:24;;;;;;;51.47;36.67;;;13.60;90.00;;;;;;5097374;28;20067;-67
2021/03/25 10:25:54;;;;;;;44.38;31.17;;;13.90;89.40;;;;;;5086521;28;20055;-67
2021/03/25 10:28:25;;;;;;;40.83;29.25;;;13.80;89.20;;;;;;5083907;28;20746;-67
2021/03/25 10:31:00;;;;;;;38.45;29.15;;;13.80;86.00;;;;;;5086111;28;20067;-68
2021/03/25 10:33:28;;;;;;;42.10;29.10;;;13.80;87.50;;;;;;5085175;28;20040;-68
2021/03/25 10:36:00;;;;;;;36.67;26.95;;;13.80;86.10;;;;;;5084892;28;20085;-67
2021/03/25 10:38:34;;;;;;;37.22;26.63;;;13.80;85.60;;;;;;5083170;28;20043;-67
2021/03/25 10:41:02;;;;;;;42.15;26.55;;;13.80;85.30;;;;;;5084754;28;20036;-68
2021/03/25 10:43:34;;;;;;;39.25;28.48;;;13.80;85.30;;;;;;5086001;28;20028;-67
2021/03/25 10:46:22;;;;;;;38.42;26.90;;;13.90;86.00;;;;;;5085085;28;20035;-67
2021/03/25 10:48:49;;;;;;;38.33;29.08;;;14.00;85.50;;;;;;5081813;28;20043;-67
2021/03/25 10:51:18;;;;;;;34.17;24.33;;;14.00;83.70;;;;;;5083965;28;20051;-68
2021/03/25 10:53:52;;;;;;;35.83;23.13;;;14.00;83.70;;;;;;5109216;27;20133;-68
2021/03/25 10:56:39;;;;;;;29.25;22.80;;;13.90;83.10;;;;;;5088348;28;20059;-67
2021/03/25 10:59:06;;;;;;;31.92;21.42;;;13.90;82.50;;;;;;5086632;28;20488;-67
2021/03/25 11:01:34;;;;;;;35.10;22.35;;;13.80;82.70;;;;;;5088809;28;20048;-68
2021/03/25 11:04:14;;;;;;;34.40;20.88;;;13.80;80.90;;;;;;5087757;28;20036;-68
2021/03/25 11:06:40;;;;;;;32.15;21.60;;;13.80;83.90;;;;;;5088591;28;20043;-67
2021/03/25 11:09:07;;;;;;;35.58;23.02;;;13.80;82.60;;;;;;5090524;28;20063;-67
2021/03/25 11:11:36;;;;;;;33.95;23.92;;;13.80;83.00;;;;;;5088036;28;20028;-68
2021/03/25 11:14:06;;;;;;;38.10;26.45;;;13.70;84.20;;;;;;5082121;28;20093;-67
2021/03/25 11:16:33;;;;;;;35.65;26.20;;;13.60;85.90;;;;;;5083421;28;20040;-68
2021/03/25 11:19:08;;;;;;;32.67;24.27;;;13.60;87.70;;;;;;5081235;28;20556;-68
2021/03/25 11:21:40;;;;;;;32.20;23.83;;;13.60;85.40;;;;;;5082964;28;20102;-68
2021/03/25 11:24:32;;;;;;;36.08;24.27;;;13.50;87.00;;;;;;5084916;28;20046;-67
2021/03/25 11:27:05;;;;;;;36.58;24.67;;;13.50;85.20;;;;;;5087773;28;20490;-67
2021/03/25 11:29:35;;;;;;;40.10;28.08;;;13.50;86.00;;;;;;5086911;28;20111;-68
2021/03/25 11:32:25;;;;;;;37.17;25.58;;;13.40;86.60;;;;;;5081744;28;20039;-68
2021/03/25 11:34:54;;;;;;;39.25;27.55;;;13.30;86.30;;;;;;5078791;28;20048;-68
2021/03/25 11:37:30;;;;;;;41.40;29.73;;;13.10;87.60;;;;;;5083926;28;20070;-68
2021/03/25 11:40:01;;;;;;;43.58;28.92;;;13.10;88.30;;;;;;5083270;28;20048;-68
2021/03/25 11:42:30;;;;;;;41.35;28.17;;;13.10;89.60;;;;;;5084718;28;20441;-68
2021/03/25 11:44:56;;;;;;;39.13;27.75;;;13.30;90.00;;;;;;5087293;28;20116;-68
2021/03/25 11:47:44;;;;;;;37.30;28.25;;;13.50;89.90;;;;;;5082852;28;20119;-68
2021/03/25 11:50:16;;;;;;;36.47;25.90;;;13.50;88.40;;;;;;5080969;28;20044;-68
2021/03/25 11:52:51;;;;;;;38.13;28.00;;;13.50;88.10;;;;;;5080748;28;20071;-68
2021/03/25 11:55:38;;;;;;;43.20;29.63;;;13.60;88.70;;;;;;5081029;28;20441;-68
2021/03/25 11:58:17;;;;;;;44.13;32.35;;;13.60;88.80;;;;;;5082560;28;20437;-68
2021/03/25 12:01:01;;;;;;;45.33;30.80;;;13.80;89.40;;;;;;5081575;28;20036;-68
2021/03/25 12:03:32;;;;;;;45.83;31.73;;;13.80;87.50;;;;;;5079822;28;20040;-68
2021/03/25 12:05:58;;;;;;;42.00;29.83;;;13.80;88.80;;;;;;5080781;28;20072;-68
2021/03/25 12:08:27;;;;;;;44.30;30.98;;;13.80;88.40;;;;;;5081285;28;20062;-68
2021/03/25 12:10:59;;;;;;;45.55;30.15;;;13.60;88.90;;;;;;5080888;28;20051;-68
2021/03/25 12:13:25;;;;;;;46.85;31.30;;;13.60;88.60;;;;;;5080831;28;20046;-68
2021/03/25 12:15:51;;;;;;;44.78;32.13;;;13.60;90.20;;;;;;5082448;28;20032;-68
2021/03/25 12:18:32;;;;;;;43.75;28.20;;;13.50;91.20;;;;;;5084184;28;20907;-68
2021/03/25 12:21:05;;;;;;;47.30;31.85;;;13.50;91.70;;;;;;5085179;28;20127;-68
2021/03/25 12:23:33;;;;;;;39.90;28.90;;;13.60;92.00;;;;;;5086758;28;20032;-68
2021/03/25 12:26:01;;;;;;;46.53;29.73;;;13.60;92.10;;;;;;5089009;28;20032;-68
2021/03/25 12:28:27;;;;;;;44.38;32.30;;;13.60;92.20;;;;;;5085710;28;20040;-68
2021/03/25 12:30:53;;;;;;;42.90;32.15;;;13.70;93.80;;;;;;5084361;28;20542;-68
2021/03/25 12:33:38;;;;;;;38.20;31.13;;;13.90;94.10;;;;;;5080323;28;20044;-68
2021/03/25 12:36:06;;;;;;;41.42;30.25;;;14.20;92.90;;;;;;5080663;28;20066;-68
2021/03/25 12:38:33;;;;;;;41.67;29.42;;;14.40;91.50;;;;;;5080191;28;20050;-68
2021/03/25 12:40:58;;;;;;;41.38;30.15;;;14.40;91.40;;;;;;5086292;28;20039;-68
2021/03/25 12:43:30;;;;;;;41.72;29.13;;;14.40;90.80;;;;;;5088088;28;20044;-68
2021/03/25 12:46:02;;;;;;;43.03;29.13;;;14.30;89.80;;;;;;5093141;28;20031;-68
2021/03/25 12:48:30;;;;;;;42.00;29.60;;;14.20;88.60;;;;;;5090029;28;20031;-68
2021/03/25 12:50:57;;;;;;;40.03;29.38;;;14.10;89.70;;;;;;5086460;28;20078;-68
2021/03/25 12:53:25;;;;;;;37.38;29.30;;;14.00;90.30;;;;;;5083822;28;20051;-68
2021/03/25 12:55:51;;;;;;;38.75;29.25;;;14.00;90.90;;;;;;5087690;28;20402;-68
2021/03/25 12:58:33;;;;;;;40.20;27.92;;;13.90;89.70;;;;;;5086643;28;20051;-68
2021/03/25 13:01:02;;;;;;;40.17;30.48;;;13.80;89.70;;;;;;5088553;28;21000;-68
2021/03/25 13:03:28;;;;;;;43.28;30.02;;;13.80;91.30;;;;;;5089983;28;20042;-68
2021/03/25 13:05:54;;;;;;;42.25;28.40;;;13.90;91.10;;;;;;5092853;28;20123;-68
2021/03/25 13:08:19;;;;;;;42.28;29.95;;;13.80;90.30;;;;;;5094767;28;20151;-68
2021/03/25 13:10:45;;;;;;;34.55;25.60;;;13.70;90.40;;;;;;5095150;28;20044;-68
2021/03/25 13:13:12;;;;;;;41.03;27.90;;;13.70;90.80;;;;;;5089821;28;20363;-68
2021/03/25 13:15:38;;;;;;;38.13;26.13;;;13.60;91.30;;;;;;5088011;28;20035;-68